sensor_id;sensor_type;location;lat;lon;timestamp;P1;durP1;ratioP1;P2;durP2;ratioP2
46447;SDS011;32145;50.390;30.778;2023-04-25T00:02:30;13.73;;;8.20;;
46447;SDS011;32145;50.390;30.778;2023-04-25T00:05:26;12.32;;;7.55;;
46447;SDS011;32145;50.390;30.778;2023-04-25T00:08:20;12.27;;;7.63;;
46447;SDS011;32145;50.390;30.778;2023-04-25T00:11:15;12.25;;;7.32;;
46447;SDS011;32145;50.390;30.778;2023-04-25T00:14:09;14.23;;;7.68;;
46447;SDS011;32145;50.390;30.778;2023-04-25T00:17:03;12.80;;;7.80;;
46447;SDS011;32145;50.390;30.778;2023-04-25T00:19:59;14.20;;;8.65;;
46447;SDS011;32145;50.390;30.778;2023-04-25T00:22:57;15.23;;;8.90;;
46447;SDS011;32145;50.390;30.778;2023-04-25T00:25:52;14.48;;;8.07;;
46447;SDS011;32145;50.390;30.778;2023-04-25T00:28:46;13.32;;;8.60;;
46447;SDS011;32145;50.390;30.778;2023-04-25T00:31:41;21.83;;;10.10;;
46447;SDS011;32145;50.390;30.778;2023-04-25T00:34:35;17.58;;;9.82;;
46447;SDS011;32145;50.390;30.778;2023-04-25T00:37:29;18.02;;;9.57;;
46447;SDS011;32145;50.390;30.778;2023-04-25T00:40:25;22.58;;;10.30;;
46447;SDS011;32145;50.390;30.778;2023-04-25T00:43:21;18.27;;;10.10;;
46447;SDS011;32145;50.390;30.778;2023-04-25T00:46:18;18.35;;;9.98;;
46447;SDS011;32145;50.390;30.778;2023-04-25T00:49:14;20.15;;;9.90;;
46447;SDS011;32145;50.390;30.778;2023-04-25T00:52:11;20.50;;;10.93;;
46447;SDS011;32145;50.390;30.778;2023-04-25T00:55:07;23.35;;;11.30;;
46447;SDS011;32145;50.390;30.778;2023-04-25T00:58:06;22.92;;;10.98;;
46447;SDS011;32145;50.390;30.778;2023-04-25T01:01:02;24.05;;;11.55;;
46447;SDS011;32145;50.390;30.778;2023-04-25T01:03:59;22.83;;;11.55;;
46447;SDS011;32145;50.390;30.778;2023-04-25T01:06:57;23.05;;;11.65;;
46447;SDS011;32145;50.390;30.778;2023-04-25T01:09:54;25.20;;;11.65;;
46447;SDS011;32145;50.390;30.778;2023-04-25T01:12:50;22.05;;;11.88;;
46447;SDS011;32145;50.390;30.778;2023-04-25T01:15:48;24.83;;;11.88;;
46447;SDS011;32145;50.390;30.778;2023-04-25T01:18:42;24.20;;;11.55;;
46447;SDS011;32145;50.390;30.778;2023-04-25T01:21:38;21.17;;;10.82;;
46447;SDS011;32145;50.390;30.778;2023-04-25T01:24:32;21.73;;;11.10;;
46447;SDS011;32145;50.390;30.778;2023-04-25T01:27:27;20.60;;;11.02;;
46447;SDS011;32145;50.390;30.778;2023-04-25T01:30:22;21.98;;;11.05;;
46447;SDS011;32145;50.390;30.778;2023-04-25T01:33:16;20.77;;;10.93;;
46447;SDS011;32145;50.390;30.778;2023-04-25T01:36:11;20.52;;;10.80;;
46447;SDS011;32145;50.390;30.778;2023-04-25T01:39:07;17.25;;;9.45;;
46447;SDS011;32145;50.390;30.778;2023-04-25T01:42:02;14.80;;;8.68;;
46447;SDS011;32145;50.390;30.778;2023-04-25T01:44:56;16.35;;;8.45;;
46447;SDS011;32145;50.390;30.778;2023-04-25T01:47:50;15.23;;;8.18;;
46447;SDS011;32145;50.390;30.778;2023-04-25T01:50:45;15.18;;;8.40;;
46447;SDS011;32145;50.390;30.778;2023-04-25T01:53:41;14.73;;;9.18;;
46447;SDS011;32145;50.390;30.778;2023-04-25T01:56:39;16.05;;;9.10;;
46447;SDS011;32145;50.390;30.778;2023-04-25T01:59:35;15.68;;;8.27;;
46447;SDS011;32145;50.390;30.778;2023-04-25T02:02:32;16.85;;;8.88;;
46447;SDS011;32145;50.390;30.778;2023-04-25T02:05:30;15.90;;;9.35;;
46447;SDS011;32145;50.390;30.778;2023-04-25T02:08:30;15.82;;;8.27;;
46447;SDS011;32145;50.390;30.778;2023-04-25T02:11:26;13.65;;;8.10;;
46447;SDS011;32145;50.390;30.778;2023-04-25T02:14:24;13.63;;;8.52;;
46447;SDS011;32145;50.390;30.778;2023-04-25T02:17:20;16.15;;;7.88;;
46447;SDS011;32145;50.390;30.778;2023-04-25T02:20:15;12.98;;;7.70;;
46447;SDS011;32145;50.390;30.778;2023-04-25T02:23:09;14.70;;;8.25;;
46447;SDS011;32145;50.390;30.778;2023-04-25T02:26:03;14.52;;;8.30;;
46447;SDS011;32145;50.390;30.778;2023-04-25T02:28:58;13.60;;;7.82;;
46447;SDS011;32145;50.390;30.778;2023-04-25T02:31:54;14.60;;;8.25;;
46447;SDS011;32145;50.390;30.778;2023-04-25T02:34:48;12.98;;;8.23;;
46447;SDS011;32145;50.390;30.778;2023-04-25T02:37:45;17.00;;;9.27;;
46447;SDS011;32145;50.390;30.778;2023-04-25T02:40:40;15.98;;;9.20;;
46447;SDS011;32145;50.390;30.778;2023-04-25T02:43:34;15.13;;;9.27;;
46447;SDS011;32145;50.390;30.778;2023-04-25T02:46:28;15.88;;;9.52;;
46447;SDS011;32145;50.390;30.778;2023-04-25T02:49:24;13.23;;;8.52;;
46447;SDS011;32145;50.390;30.778;2023-04-25T02:52:21;18.33;;;9.70;;
46447;SDS011;32145;50.390;30.778;2023-04-25T02:55:17;15.48;;;9.45;;
46447;SDS011;32145;50.390;30.778;2023-04-25T02:58:14;15.65;;;9.68;;
46447;SDS011;32145;50.390;30.778;2023-04-25T03:01:08;16.05;;;9.40;;
46447;SDS011;32145;50.390;30.778;2023-04-25T03:04:02;15.73;;;9.32;;
46447;SDS011;32145;50.390;30.778;2023-04-25T03:14:06;18.00;;;9.68;;
46447;SDS011;32145;50.390;30.778;2023-04-25T03:17:02;17.38;;;9.30;;
46447;SDS011;32145;50.390;30.778;2023-04-25T03:19:58;16.17;;;8.82;;
46447;SDS011;32145;50.390;30.778;2023-04-25T03:22:53;13.40;;;8.55;;
46447;SDS011;32145;50.390;30.778;2023-04-25T03:25:47;15.75;;;9.73;;
46447;SDS011;32145;50.390;30.778;2023-04-25T03:28:41;13.48;;;8.43;;
46447;SDS011;32145;50.390;30.778;2023-04-25T03:31:31;15.45;;;9.27;;
46447;SDS011;32145;50.390;30.778;2023-04-25T03:34:21;18.63;;;10.18;;
46447;SDS011;32145;50.390;30.778;2023-04-25T03:37:16;29.52;;;13.60;;
46447;SDS011;32145;50.390;30.778;2023-04-25T03:40:10;28.50;;;13.45;;
46447;SDS011;32145;50.390;30.778;2023-04-25T03:42:59;23.33;;;12.27;;
46447;SDS011;32145;50.390;30.778;2023-04-25T03:45:49;42.45;;;17.52;;
46447;SDS011;32145;50.390;30.778;2023-04-25T03:48:39;41.17;;;18.47;;
46447;SDS011;32145;50.390;30.778;2023-04-25T03:51:29;43.47;;;18.75;;
46447;SDS011;32145;50.390;30.778;2023-04-25T03:54:24;44.38;;;18.75;;
46447;SDS011;32145;50.390;30.778;2023-04-25T03:57:18;36.35;;;17.20;;
46447;SDS011;32145;50.390;30.778;2023-04-25T04:00:09;35.65;;;17.15;;
46447;SDS011;32145;50.390;30.778;2023-04-25T04:03:03;32.30;;;16.05;;
46447;SDS011;32145;50.390;30.778;2023-04-25T04:05:59;24.33;;;13.18;;
46447;SDS011;32145;50.390;30.778;2023-04-25T04:08:53;22.92;;;12.18;;
46447;SDS011;32145;50.390;30.778;2023-04-25T04:11:48;23.70;;;11.68;;
46447;SDS011;32145;50.390;30.778;2023-04-25T04:14:36;16.60;;;9.43;;
46447;SDS011;32145;50.390;30.778;2023-04-25T04:17:27;17.70;;;9.80;;
46447;SDS011;32145;50.390;30.778;2023-04-25T04:20:15;15.95;;;9.23;;
46447;SDS011;32145;50.390;30.778;2023-04-25T04:23:07;15.77;;;9.38;;
46447;SDS011;32145;50.390;30.778;2023-04-25T04:25:55;17.23;;;9.55;;
46447;SDS011;32145;50.390;30.778;2023-04-25T04:28:52;15.10;;;8.80;;
46447;SDS011;32145;50.390;30.778;2023-04-25T04:31:47;12.38;;;7.75;;
46447;SDS011;32145;50.390;30.778;2023-04-25T04:34:41;12.07;;;7.80;;
46447;SDS011;32145;50.390;30.778;2023-04-25T04:37:30;13.23;;;7.20;;
46447;SDS011;32145;50.390;30.778;2023-04-25T04:40:21;9.32;;;6.50;;
46447;SDS011;32145;50.390;30.778;2023-04-25T04:43:16;10.25;;;6.03;;
46447;SDS011;32145;50.390;30.778;2023-04-25T04:46:10;12.25;;;6.78;;
46447;SDS011;32145;50.390;30.778;2023-04-25T04:48:59;9.25;;;5.47;;
46447;SDS011;32145;50.390;30.778;2023-04-25T04:51:49;8.23;;;5.90;;
46447;SDS011;32145;50.390;30.778;2023-04-25T04:54:37;11.30;;;6.75;;
46447;SDS011;32145;50.390;30.778;2023-04-25T04:57:29;10.25;;;6.90;;
46447;SDS011;32145;50.390;30.778;2023-04-25T05:03:13;8.60;;;6.10;;
46447;SDS011;32145;50.390;30.778;2023-04-25T05:06:10;12.07;;;6.40;;
46447;SDS011;32145;50.390;30.778;2023-04-25T05:09:00;8.38;;;5.80;;
46447;SDS011;32145;50.390;30.778;2023-04-25T05:11:54;9.15;;;5.80;;
46447;SDS011;32145;50.390;30.778;2023-04-25T05:14:50;7.40;;;5.43;;
46447;SDS011;32145;50.390;30.778;2023-04-25T05:17:47;11.95;;;5.90;;
46447;SDS011;32145;50.390;30.778;2023-04-25T05:20:43;7.80;;;5.43;;
46447;SDS011;32145;50.390;30.778;2023-04-25T05:23:39;7.07;;;5.20;;
46447;SDS011;32145;50.390;30.778;2023-04-25T05:26:34;8.68;;;5.72;;
46447;SDS011;32145;50.390;30.778;2023-04-25T05:29:31;8.55;;;5.40;;
46447;SDS011;32145;50.390;30.778;2023-04-25T05:32:29;8.23;;;5.57;;
46447;SDS011;32145;50.390;30.778;2023-04-25T05:35:19;9.15;;;5.85;;
46447;SDS011;32145;50.390;30.778;2023-04-25T05:38:13;9.48;;;5.80;;
46447;SDS011;32145;50.390;30.778;2023-04-25T05:41:08;9.63;;;5.63;;
46447;SDS011;32145;50.390;30.778;2023-04-25T05:44:02;9.73;;;6.20;;
46447;SDS011;32145;50.390;30.778;2023-04-25T05:46:56;9.60;;;5.80;;
46447;SDS011;32145;50.390;30.778;2023-04-25T05:49:52;10.05;;;6.00;;
46447;SDS011;32145;50.390;30.778;2023-04-25T05:52:46;8.95;;;5.22;;
46447;SDS011;32145;50.390;30.778;2023-04-25T05:55:40;9.90;;;6.20;;
46447;SDS011;32145;50.390;30.778;2023-04-25T05:58:37;10.50;;;5.75;;
46447;SDS011;32145;50.390;30.778;2023-04-25T06:01:33;8.57;;;5.75;;
46447;SDS011;32145;50.390;30.778;2023-04-25T06:04:29;7.75;;;5.18;;
46447;SDS011;32145;50.390;30.778;2023-04-25T06:07:21;8.57;;;5.43;;
46447;SDS011;32145;50.390;30.778;2023-04-25T06:10:15;10.63;;;5.60;;
46447;SDS011;32145;50.390;30.778;2023-04-25T06:13:10;9.45;;;5.60;;
46447;SDS011;32145;50.390;30.778;2023-04-25T06:15:58;9.00;;;5.28;;
46447;SDS011;32145;50.390;30.778;2023-04-25T06:18:48;7.35;;;4.75;;
46447;SDS011;32145;50.390;30.778;2023-04-25T06:21:43;9.82;;;5.25;;
46447;SDS011;32145;50.390;30.778;2023-04-25T06:24:34;8.40;;;4.82;;
46447;SDS011;32145;50.390;30.778;2023-04-25T06:27:24;9.95;;;5.22;;
46447;SDS011;32145;50.390;30.778;2023-04-25T06:30:12;9.45;;;5.10;;
46447;SDS011;32145;50.390;30.778;2023-04-25T06:33:02;10.30;;;4.70;;
46447;SDS011;32145;50.390;30.778;2023-04-25T06:35:56;5.45;;;4.00;;
46447;SDS011;32145;50.390;30.778;2023-04-25T06:38:51;8.55;;;4.60;;
46447;SDS011;32145;50.390;30.778;2023-04-25T06:41:40;6.93;;;4.05;;
46447;SDS011;32145;50.390;30.778;2023-04-25T06:44:37;7.00;;;3.78;;
46447;SDS011;32145;50.390;30.778;2023-04-25T06:47:34;6.95;;;3.90;;
46447;SDS011;32145;50.390;30.778;2023-04-25T06:50:28;7.13;;;3.67;;
46447;SDS011;32145;50.390;30.778;2023-04-25T06:53:22;10.43;;;4.05;;
46447;SDS011;32145;50.390;30.778;2023-04-25T06:56:17;8.38;;;4.20;;
46447;SDS011;32145;50.390;30.778;2023-04-25T06:59:13;6.32;;;3.92;;
46447;SDS011;32145;50.390;30.778;2023-04-25T07:02:07;7.43;;;4.00;;
46447;SDS011;32145;50.390;30.778;2023-04-25T07:05:01;6.43;;;3.90;;
46447;SDS011;32145;50.390;30.778;2023-04-25T07:07:55;6.05;;;3.70;;
46447;SDS011;32145;50.390;30.778;2023-04-25T07:10:49;4.75;;;2.97;;
46447;SDS011;32145;50.390;30.778;2023-04-25T07:13:46;6.50;;;3.25;;
46447;SDS011;32145;50.390;30.778;2023-04-25T07:16:43;7.55;;;3.00;;
46447;SDS011;32145;50.390;30.778;2023-04-25T07:19:40;5.55;;;3.30;;
46447;SDS011;32145;50.390;30.778;2023-04-25T07:22:36;6.28;;;3.40;;
46447;SDS011;32145;50.390;30.778;2023-04-25T07:25:32;8.38;;;3.92;;
46447;SDS011;32145;50.390;30.778;2023-04-25T07:28:26;6.50;;;3.40;;
46447;SDS011;32145;50.390;30.778;2023-04-25T07:31:21;5.85;;;3.60;;
46447;SDS011;32145;50.390;30.778;2023-04-25T07:34:19;6.30;;;3.30;;
46447;SDS011;32145;50.390;30.778;2023-04-25T07:37:16;5.88;;;3.38;;
46447;SDS011;32145;50.390;30.778;2023-04-25T07:40:12;6.00;;;3.33;;
46447;SDS011;32145;50.390;30.778;2023-04-25T07:43:07;6.72;;;3.33;;
46447;SDS011;32145;50.390;30.778;2023-04-25T07:46:01;6.35;;;3.70;;
46447;SDS011;32145;50.390;30.778;2023-04-25T07:48:55;6.72;;;3.38;;
46447;SDS011;32145;50.390;30.778;2023-04-25T07:51:51;5.57;;;3.28;;
46447;SDS011;32145;50.390;30.778;2023-04-25T07:54:45;5.18;;;3.13;;
46447;SDS011;32145;50.390;30.778;2023-04-25T07:57:40;6.18;;;3.45;;
46447;SDS011;32145;50.390;30.778;2023-04-25T08:00:34;8.23;;;3.50;;
46447;SDS011;32145;50.390;30.778;2023-04-25T08:03:28;5.45;;;3.00;;
46447;SDS011;32145;50.390;30.778;2023-04-25T08:06:23;6.10;;;2.88;;
46447;SDS011;32145;50.390;30.778;2023-04-25T08:09:19;5.43;;;3.03;;
46447;SDS011;32145;50.390;30.778;2023-04-25T08:12:13;6.45;;;2.90;;
46447;SDS011;32145;50.390;30.778;2023-04-25T08:15:08;5.90;;;3.03;;
46447;SDS011;32145;50.390;30.778;2023-04-25T08:18:03;6.00;;;3.20;;
46447;SDS011;32145;50.390;30.778;2023-04-25T08:20:57;4.88;;;3.17;;
46447;SDS011;32145;50.390;30.778;2023-04-25T08:23:52;4.47;;;2.70;;
46447;SDS011;32145;50.390;30.778;2023-04-25T08:26:47;4.38;;;2.70;;
46447;SDS011;32145;50.390;30.778;2023-04-25T08:29:41;3.95;;;2.75;;
46447;SDS011;32145;50.390;30.778;2023-04-25T08:32:36;4.55;;;2.80;;
46447;SDS011;32145;50.390;30.778;2023-04-25T08:35:30;4.13;;;2.97;;
46447;SDS011;32145;50.390;30.778;2023-04-25T08:38:24;5.75;;;3.13;;
46447;SDS011;32145;50.390;30.778;2023-04-25T08:41:19;6.47;;;3.28;;
46447;SDS011;32145;50.390;30.778;2023-04-25T08:44:18;5.40;;;3.05;;
46447;SDS011;32145;50.390;30.778;2023-04-25T08:47:16;5.72;;;2.92;;
46447;SDS011;32145;50.390;30.778;2023-04-25T08:50:16;5.75;;;2.70;;
46447;SDS011;32145;50.390;30.778;2023-04-25T08:53:13;5.10;;;2.53;;
46447;SDS011;32145;50.390;30.778;2023-04-25T08:56:12;5.35;;;3.17;;
46447;SDS011;32145;50.390;30.778;2023-04-25T09:02:09;6.32;;;2.50;;
46447;SDS011;32145;50.390;30.778;2023-04-25T09:05:06;5.10;;;2.97;;
46447;SDS011;32145;50.390;30.778;2023-04-25T09:08:03;4.70;;;2.40;;
46447;SDS011;32145;50.390;30.778;2023-04-25T09:10:57;5.32;;;2.28;;
46447;SDS011;32145;50.390;30.778;2023-04-25T09:13:52;5.13;;;2.65;;
46447;SDS011;32145;50.390;30.778;2023-04-25T09:17:06;5.53;;;2.33;;
46447;SDS011;32145;50.390;30.778;2023-04-25T09:20:08;5.55;;;2.38;;
46447;SDS011;32145;50.390;30.778;2023-04-25T09:23:05;4.78;;;2.75;;
46447;SDS011;32145;50.390;30.778;2023-04-25T09:26:02;4.95;;;2.22;;
46447;SDS011;32145;50.390;30.778;2023-04-25T09:29:04;3.70;;;2.30;;
46447;SDS011;32145;50.390;30.778;2023-04-25T09:32:11;4.32;;;2.50;;
46447;SDS011;32145;50.390;30.778;2023-04-25T09:35:12;5.10;;;2.28;;
46447;SDS011;32145;50.390;30.778;2023-04-25T09:38:19;4.57;;;2.50;;
46447;SDS011;32145;50.390;30.778;2023-04-25T09:41:15;4.07;;;2.30;;
46447;SDS011;32145;50.390;30.778;2023-04-25T09:44:22;4.50;;;2.20;;
46447;SDS011;32145;50.390;30.778;2023-04-25T09:47:19;3.67;;;2.28;;
46447;SDS011;32145;50.390;30.778;2023-04-25T09:50:17;5.38;;;2.80;;
46447;SDS011;32145;50.390;30.778;2023-04-25T09:53:13;5.57;;;2.50;;
46447;SDS011;32145;50.390;30.778;2023-04-25T09:56:10;4.72;;;2.47;;
46447;SDS011;32145;50.390;30.778;2023-04-25T09:59:07;5.40;;;2.50;;
46447;SDS011;32145;50.390;30.778;2023-04-25T10:02:05;4.78;;;2.00;;
46447;SDS011;32145;50.390;30.778;2023-04-25T10:05:05;3.72;;;2.13;;
46447;SDS011;32145;50.390;30.778;2023-04-25T10:08:04;3.70;;;2.17;;
46447;SDS011;32145;50.390;30.778;2023-04-25T10:11:02;3.92;;;2.15;;
46447;SDS011;32145;50.390;30.778;2023-04-25T10:13:59;3.60;;;2.40;;
46447;SDS011;32145;50.390;30.778;2023-04-25T10:16:55;4.88;;;2.17;;
46447;SDS011;32145;50.390;30.778;2023-04-25T10:19:53;3.30;;;2.22;;
46447;SDS011;32145;50.390;30.778;2023-04-25T10:22:50;5.38;;;2.53;;
46447;SDS011;32145;50.390;30.778;2023-04-25T10:25:51;3.40;;;2.38;;
46447;SDS011;32145;50.390;30.778;2023-04-25T10:28:57;4.82;;;2.78;;
46447;SDS011;32145;50.390;30.778;2023-04-25T10:31:55;5.30;;;2.30;;
46447;SDS011;32145;50.390;30.778;2023-04-25T10:34:53;6.65;;;2.40;;
46447;SDS011;32145;50.390;30.778;2023-04-25T10:38:05;4.60;;;2.42;;
46447;SDS011;32145;50.390;30.778;2023-04-25T10:41:06;3.38;;;2.17;;
46447;SDS011;32145;50.390;30.778;2023-04-25T10:44:03;3.72;;;2.67;;
46447;SDS011;32145;50.390;30.778;2023-04-25T10:47:00;5.47;;;2.40;;
46447;SDS011;32145;50.390;30.778;2023-04-25T10:49:57;4.38;;;2.40;;
46447;SDS011;32145;50.390;30.778;2023-04-25T10:53:13;4.53;;;2.20;;
46447;SDS011;32145;50.390;30.778;2023-04-25T10:56:12;7.20;;;2.70;;
46447;SDS011;32145;50.390;30.778;2023-04-25T10:59:13;4.13;;;2.30;;
46447;SDS011;32145;50.390;30.778;2023-04-25T11:02:11;4.88;;;2.30;;
46447;SDS011;32145;50.390;30.778;2023-04-25T11:05:07;4.35;;;2.30;;
46447;SDS011;32145;50.390;30.778;2023-04-25T11:08:06;3.85;;;2.28;;
46447;SDS011;32145;50.390;30.778;2023-04-25T11:11:06;3.80;;;2.30;;
46447;SDS011;32145;50.390;30.778;2023-04-25T11:14:03;5.55;;;2.40;;
46447;SDS011;32145;50.390;30.778;2023-04-25T11:16:58;4.95;;;2.35;;
46447;SDS011;32145;50.390;30.778;2023-04-25T11:19:53;3.80;;;2.15;;
46447;SDS011;32145;50.390;30.778;2023-04-25T11:22:47;3.88;;;2.20;;
46447;SDS011;32145;50.390;30.778;2023-04-25T11:25:42;3.70;;;2.25;;
46447;SDS011;32145;50.390;30.778;2023-04-25T11:28:37;3.75;;;2.20;;
46447;SDS011;32145;50.390;30.778;2023-04-25T11:31:33;5.47;;;2.40;;
46447;SDS011;32145;50.390;30.778;2023-04-25T11:34:28;4.15;;;2.17;;
46447;SDS011;32145;50.390;30.778;2023-04-25T11:37:23;5.03;;;2.08;;
46447;SDS011;32145;50.390;30.778;2023-04-25T11:40:17;5.45;;;2.10;;
46447;SDS011;32145;50.390;30.778;2023-04-25T11:43:11;3.30;;;2.22;;
46447;SDS011;32145;50.390;30.778;2023-04-25T11:46:06;3.92;;;2.08;;
46447;SDS011;32145;50.390;30.778;2023-04-25T11:49:02;3.70;;;2.15;;
46447;SDS011;32145;50.390;30.778;2023-04-25T11:51:56;4.38;;;2.28;;
46447;SDS011;32145;50.390;30.778;2023-04-25T11:54:50;4.47;;;2.13;;
46447;SDS011;32145;50.390;30.778;2023-04-25T11:57:45;3.75;;;2.30;;
46447;SDS011;32145;50.390;30.778;2023-04-25T12:00:43;3.53;;;2.10;;
46447;SDS011;32145;50.390;30.778;2023-04-25T12:03:45;3.45;;;2.08;;
46447;SDS011;32145;50.390;30.778;2023-04-25T12:06:43;3.45;;;2.08;;
46447;SDS011;32145;50.390;30.778;2023-04-25T12:09:41;4.05;;;2.20;;
46447;SDS011;32145;50.390;30.778;2023-04-25T12:12:37;5.53;;;2.72;;
46447;SDS011;32145;50.390;30.778;2023-04-25T12:15:34;6.45;;;2.40;;
46447;SDS011;32145;50.390;30.778;2023-04-25T12:18:31;4.05;;;2.00;;
46447;SDS011;32145;50.390;30.778;2023-04-25T12:21:28;4.03;;;1.95;;
46447;SDS011;32145;50.390;30.778;2023-04-25T12:24:24;5.18;;;1.88;;
46447;SDS011;32145;50.390;30.778;2023-04-25T12:27:19;6.60;;;2.25;;
46447;SDS011;32145;50.390;30.778;2023-04-25T12:30:15;3.60;;;2.15;;
46447;SDS011;32145;50.390;30.778;2023-04-25T12:33:12;6.57;;;2.15;;
46447;SDS011;32145;50.390;30.778;2023-04-25T12:36:08;3.75;;;1.90;;
46447;SDS011;32145;50.390;30.778;2023-04-25T12:39:04;3.88;;;2.10;;
46447;SDS011;32145;50.390;30.778;2023-04-25T12:42:02;3.55;;;2.22;;
46447;SDS011;32145;50.390;30.778;2023-04-25T12:44:58;3.58;;;2.20;;
46447;SDS011;32145;50.390;30.778;2023-04-25T12:47:55;4.30;;;2.03;;
46447;SDS011;32145;50.390;30.778;2023-04-25T12:50:51;3.83;;;2.20;;
46447;SDS011;32145;50.390;30.778;2023-04-25T12:53:47;4.90;;;2.10;;
46447;SDS011;32145;50.390;30.778;2023-04-25T12:56:44;4.07;;;1.98;;
46447;SDS011;32145;50.390;30.778;2023-04-25T12:59:42;11.07;;;4.78;;
46447;SDS011;32145;50.390;30.778;2023-04-25T13:02:38;4.43;;;2.17;;
46447;SDS011;32145;50.390;30.778;2023-04-25T13:05:34;3.25;;;1.90;;
46447;SDS011;32145;50.390;30.778;2023-04-25T13:08:30;3.28;;;2.05;;
46447;SDS011;32145;50.390;30.778;2023-04-25T13:11:27;4.03;;;2.00;;
46447;SDS011;32145;50.390;30.778;2023-04-25T13:14:23;6.05;;;2.25;;
46447;SDS011;32145;50.390;30.778;2023-04-25T13:17:21;4.35;;;2.20;;
46447;SDS011;32145;50.390;30.778;2023-04-25T13:20:15;4.28;;;2.10;;
46447;SDS011;32145;50.390;30.778;2023-04-25T13:23:09;4.55;;;2.15;;
46447;SDS011;32145;50.390;30.778;2023-04-25T13:26:04;4.18;;;2.13;;
46447;SDS011;32145;50.390;30.778;2023-04-25T13:28:58;5.15;;;2.30;;
46447;SDS011;32145;50.390;30.778;2023-04-25T13:31:52;4.03;;;2.10;;
46447;SDS011;32145;50.390;30.778;2023-04-25T13:34:48;3.35;;;2.10;;
46447;SDS011;32145;50.390;30.778;2023-04-25T13:37:44;4.82;;;2.08;;
46447;SDS011;32145;50.390;30.778;2023-04-25T13:40:41;5.63;;;2.10;;
46447;SDS011;32145;50.390;30.778;2023-04-25T13:43:37;3.13;;;2.05;;
46447;SDS011;32145;50.390;30.778;2023-04-25T13:46:33;6.22;;;2.20;;
46447;SDS011;32145;50.390;30.778;2023-04-25T13:49:30;5.57;;;2.13;;
46447;SDS011;32145;50.390;30.778;2023-04-25T13:52:27;5.00;;;2.20;;
46447;SDS011;32145;50.390;30.778;2023-04-25T13:55:24;6.28;;;2.38;;
46447;SDS011;32145;50.390;30.778;2023-04-25T13:58:20;3.85;;;1.92;;
46447;SDS011;32145;50.390;30.778;2023-04-25T14:01:16;4.25;;;2.00;;
46447;SDS011;32145;50.390;30.778;2023-04-25T14:04:12;6.80;;;2.10;;
46447;SDS011;32145;50.390;30.778;2023-04-25T14:07:09;4.25;;;2.03;;
46447;SDS011;32145;50.390;30.778;2023-04-25T14:10:07;3.15;;;2.00;;
46447;SDS011;32145;50.390;30.778;2023-04-25T14:13:04;5.65;;;2.28;;
46447;SDS011;32145;50.390;30.778;2023-04-25T14:16:00;4.75;;;2.30;;
46447;SDS011;32145;50.390;30.778;2023-04-25T14:18:57;5.65;;;2.13;;
46447;SDS011;32145;50.390;30.778;2023-04-25T14:21:53;4.20;;;2.00;;
46447;SDS011;32145;50.390;30.778;2023-04-25T14:24:50;3.58;;;1.92;;
46447;SDS011;32145;50.390;30.778;2023-04-25T14:27:47;3.35;;;2.25;;
46447;SDS011;32145;50.390;30.778;2023-04-25T14:30:43;4.53;;;2.38;;
46447;SDS011;32145;50.390;30.778;2023-04-25T14:33:40;4.88;;;2.40;;
46447;SDS011;32145;50.390;30.778;2023-04-25T14:36:35;4.90;;;2.20;;
46447;SDS011;32145;50.390;30.778;2023-04-25T14:39:29;4.78;;;2.40;;
46447;SDS011;32145;50.390;30.778;2023-04-25T14:42:24;4.18;;;2.10;;
46447;SDS011;32145;50.390;30.778;2023-04-25T14:45:19;4.93;;;2.13;;
46447;SDS011;32145;50.390;30.778;2023-04-25T14:48:14;3.50;;;1.90;;
46447;SDS011;32145;50.390;30.778;2023-04-25T14:51:08;4.28;;;2.22;;
46447;SDS011;32145;50.390;30.778;2023-04-25T14:54:02;5.18;;;2.30;;
46447;SDS011;32145;50.390;30.778;2023-04-25T14:56:56;6.78;;;2.30;;
46447;SDS011;32145;50.390;30.778;2023-04-25T14:59:51;6.97;;;2.30;;
46447;SDS011;32145;50.390;30.778;2023-04-25T15:02:46;4.80;;;2.30;;
46447;SDS011;32145;50.390;30.778;2023-04-25T15:05:41;6.97;;;2.33;;
46447;SDS011;32145;50.390;30.778;2023-04-25T15:08:35;3.70;;;2.10;;
46447;SDS011;32145;50.390;30.778;2023-04-25T15:11:31;4.00;;;2.25;;
46447;SDS011;32145;50.390;30.778;2023-04-25T15:14:25;4.30;;;2.38;;
46447;SDS011;32145;50.390;30.778;2023-04-25T15:17:20;4.38;;;2.08;;
46447;SDS011;32145;50.390;30.778;2023-04-25T15:20:16;4.07;;;2.08;;
46447;SDS011;32145;50.390;30.778;2023-04-25T15:23:10;3.97;;;2.13;;
46447;SDS011;32145;50.390;30.778;2023-04-25T15:26:04;3.50;;;2.20;;
46447;SDS011;32145;50.390;30.778;2023-04-25T15:28:59;3.28;;;2.10;;
46447;SDS011;32145;50.390;30.778;2023-04-25T15:31:55;2.70;;;1.85;;
46447;SDS011;32145;50.390;30.778;2023-04-25T15:34:51;4.13;;;2.30;;
46447;SDS011;32145;50.390;30.778;2023-04-25T15:37:49;4.43;;;2.22;;
46447;SDS011;32145;50.390;30.778;2023-04-25T15:40:45;4.35;;;2.05;;
46447;SDS011;32145;50.390;30.778;2023-04-25T15:43:42;4.60;;;2.10;;
46447;SDS011;32145;50.390;30.778;2023-04-25T15:46:38;5.80;;;2.00;;
46447;SDS011;32145;50.390;30.778;2023-04-25T15:49:35;4.32;;;2.50;;
46447;SDS011;32145;50.390;30.778;2023-04-25T15:52:31;4.57;;;2.10;;
46447;SDS011;32145;50.390;30.778;2023-04-25T15:55:27;5.65;;;2.03;;
46447;SDS011;32145;50.390;30.778;2023-04-25T15:58:21;5.68;;;2.28;;
46447;SDS011;32145;50.390;30.778;2023-04-25T16:01:15;3.58;;;2.17;;
46447;SDS011;32145;50.390;30.778;2023-04-25T16:04:10;3.35;;;2.10;;
46447;SDS011;32145;50.390;30.778;2023-04-25T16:07:06;4.20;;;2.00;;
46447;SDS011;32145;50.390;30.778;2023-04-25T16:10:02;5.32;;;2.25;;
46447;SDS011;32145;50.390;30.778;2023-04-25T16:13:00;5.05;;;2.08;;
46447;SDS011;32145;50.390;30.778;2023-04-25T16:15:56;6.18;;;2.28;;
46447;SDS011;32145;50.390;30.778;2023-04-25T16:18:53;2.97;;;2.10;;
46447;SDS011;32145;50.390;30.778;2023-04-25T16:21:49;3.80;;;2.40;;
46447;SDS011;32145;50.390;30.778;2023-04-25T16:24:46;5.45;;;2.38;;
46447;SDS011;32145;50.390;30.778;2023-04-25T16:27:42;10.70;;;2.63;;
46447;SDS011;32145;50.390;30.778;2023-04-25T16:30:38;3.00;;;2.03;;
46447;SDS011;32145;50.390;30.778;2023-04-25T16:33:32;4.93;;;2.40;;
46447;SDS011;32145;50.390;30.778;2023-04-25T16:36:27;5.55;;;2.20;;
46447;SDS011;32145;50.390;30.778;2023-04-25T16:39:21;5.03;;;2.20;;
46447;SDS011;32145;50.390;30.778;2023-04-25T16:42:15;5.32;;;2.45;;
46447;SDS011;32145;50.390;30.778;2023-04-25T16:45:13;9.20;;;2.85;;
46447;SDS011;32145;50.390;30.778;2023-04-25T16:48:09;4.45;;;2.58;;
46447;SDS011;32145;50.390;30.778;2023-04-25T16:51:03;4.43;;;2.40;;
46447;SDS011;32145;50.390;30.778;2023-04-25T16:53:58;7.05;;;2.45;;
46447;SDS011;32145;50.390;30.778;2023-04-25T16:56:52;5.65;;;2.25;;
46447;SDS011;32145;50.390;30.778;2023-04-25T16:59:46;6.60;;;2.35;;
46447;SDS011;32145;50.390;30.778;2023-04-25T17:02:41;6.00;;;2.65;;
46447;SDS011;32145;50.390;30.778;2023-04-25T17:05:37;4.75;;;2.30;;
46447;SDS011;32145;50.390;30.778;2023-04-25T17:08:31;7.47;;;2.17;;
46447;SDS011;32145;50.390;30.778;2023-04-25T17:11:25;10.65;;;2.25;;
46447;SDS011;32145;50.390;30.778;2023-04-25T17:14:19;4.68;;;2.30;;
46447;SDS011;32145;50.390;30.778;2023-04-25T17:17:14;6.88;;;2.50;;
46447;SDS011;32145;50.390;30.778;2023-04-25T17:20:08;4.90;;;2.67;;
46447;SDS011;32145;50.390;30.778;2023-04-25T17:23:04;7.90;;;2.88;;
46447;SDS011;32145;50.390;30.778;2023-04-25T17:25:58;4.53;;;2.80;;
46447;SDS011;32145;50.390;30.778;2023-04-25T17:28:53;6.70;;;3.13;;